sensor_id;sensor_type;location;lat;lon;timestamp;P1;durP1;ratioP1;P2;durP2;ratioP2
29416;SDS011;28421;51.030;4.006;2024-01-30T00:02:21;4.72;;;3.42;;
29416;SDS011;28421;51.030;4.006;2024-01-30T00:04:47;3.97;;;2.67;;
29416;SDS011;28421;51.030;4.006;2024-01-30T00:07:12;4.93;;;2.97;;
29416;SDS011;28421;51.030;4.006;2024-01-30T00:09:38;2.92;;;2.08;;
29416;SDS011;28421;51.030;4.006;2024-01-30T00:12:05;4.63;;;3.20;;
29416;SDS011;28421;51.030;4.006;2024-01-30T00:14:31;6.00;;;3.72;;
29416;SDS011;28421;51.030;4.006;2024-01-30T00:16:57;2.47;;;2.25;;
29416;SDS011;28421;51.030;4.006;2024-01-30T00:19:22;3.25;;;2.78;;
29416;SDS011;28421;51.030;4.006;2024-01-30T00:21:48;2.45;;;2.20;;
29416;SDS011;28421;51.030;4.006;2024-01-30T00:24:14;4.00;;;2.92;;
29416;SDS011;28421;51.030;4.006;2024-01-30T00:26:39;10.95;;;2.85;;
29416;SDS011;28421;51.030;4.006;2024-01-30T00:29:05;3.85;;;2.67;;
29416;SDS011;28421;51.030;4.006;2024-01-30T00:31:31;2.55;;;2.35;;
29416;SDS011;28421;51.030;4.006;2024-01-30T00:33:56;2.78;;;2.55;;
29416;SDS011;28421;51.030;4.006;2024-01-30T00:36:22;5.00;;;2.90;;
29416;SDS011;28421;51.030;4.006;2024-01-30T00:38:47;3.17;;;2.88;;
29416;SDS011;28421;51.030;4.006;2024-01-30T00:41:13;4.95;;;2.00;;
29416;SDS011;28421;51.030;4.006;2024-01-30T00:43:39;4.65;;;3.33;;
29416;SDS011;28421;51.030;4.006;2024-01-30T00:46:04;2.35;;;2.15;;
29416;SDS011;28421;51.030;4.006;2024-01-30T00:48:29;3.80;;;2.80;;
29416;SDS011;28421;51.030;4.006;2024-01-30T00:50:55;5.88;;;3.70;;
29416;SDS011;28421;51.030;4.006;2024-01-30T00:53:20;4.50;;;3.40;;
29416;SDS011;28421;51.030;4.006;2024-01-30T00:55:46;2.92;;;2.58;;
29416;SDS011;28421;51.030;4.006;2024-01-30T00:58:11;6.57;;;3.40;;
29416;SDS011;28421;51.030;4.006;2024-01-30T01:00:37;4.85;;;3.60;;
29416;SDS011;28421;51.030;4.006;2024-01-30T01:03:04;3.70;;;2.63;;
29416;SDS011;28421;51.030;4.006;2024-01-30T01:05:30;4.13;;;2.50;;
29416;SDS011;28421;51.030;4.006;2024-01-30T01:07:55;4.88;;;3.40;;
29416;SDS011;28421;51.030;4.006;2024-01-30T01:10:20;3.78;;;2.75;;
29416;SDS011;28421;51.030;4.006;2024-01-30T01:12:48;5.22;;;3.90;;
29416;SDS011;28421;51.030;4.006;2024-01-30T01:15:13;2.42;;;2.22;;
29416;SDS011;28421;51.030;4.006;2024-01-30T01:17:39;3.20;;;2.88;;
29416;SDS011;28421;51.030;4.006;2024-01-30T01:20:06;4.03;;;2.55;;
29416;SDS011;28421;51.030;4.006;2024-01-30T01:22:32;2.28;;;2.08;;
29416;SDS011;28421;51.030;4.006;2024-01-30T01:24:58;12.82;;;2.67;;
29416;SDS011;28421;51.030;4.006;2024-01-30T01:27:24;3.08;;;2.33;;
29416;SDS011;28421;51.030;4.006;2024-01-30T01:29:50;3.88;;;2.83;;
29416;SDS011;28421;51.030;4.006;2024-01-30T01:32:16;2.78;;;2.58;;
29416;SDS011;28421;51.030;4.006;2024-01-30T01:34:41;4.88;;;2.83;;
29416;SDS011;28421;51.030;4.006;2024-01-30T01:37:07;3.30;;;2.55;;
29416;SDS011;28421;51.030;4.006;2024-01-30T01:39:32;5.35;;;2.78;;
29416;SDS011;28421;51.030;4.006;2024-01-30T01:41:58;2.72;;;2.38;;
29416;SDS011;28421;51.030;4.006;2024-01-30T01:44:23;4.55;;;3.25;;
29416;SDS011;28421;51.030;4.006;2024-01-30T01:46:49;4.00;;;2.80;;
29416;SDS011;28421;51.030;4.006;2024-01-30T01:49:17;4.68;;;2.45;;
29416;SDS011;28421;51.030;4.006;2024-01-30T01:51:44;3.08;;;2.45;;
29416;SDS011;28421;51.030;4.006;2024-01-30T01:54:12;3.53;;;2.72;;
29416;SDS011;28421;51.030;4.006;2024-01-30T01:56:39;5.18;;;3.03;;
29416;SDS011;28421;51.030;4.006;2024-01-30T01:59:06;4.35;;;2.65;;
29416;SDS011;28421;51.030;4.006;2024-01-30T02:01:33;4.32;;;2.83;;
29416;SDS011;28421;51.030;4.006;2024-01-30T02:04:00;4.47;;;2.85;;
29416;SDS011;28421;51.030;4.006;2024-01-30T02:06:26;3.80;;;2.63;;
29416;SDS011;28421;51.030;4.006;2024-01-30T02:08:52;3.83;;;2.75;;
29416;SDS011;28421;51.030;4.006;2024-01-30T02:11:18;5.70;;;2.35;;
29416;SDS011;28421;51.030;4.006;2024-01-30T02:13:44;3.83;;;2.60;;
29416;SDS011;28421;51.030;4.006;2024-01-30T02:16:10;2.72;;;2.47;;
29416;SDS011;28421;51.030;4.006;2024-01-30T02:18:36;2.75;;;2.50;;
29416;SDS011;28421;51.030;4.006;2024-01-30T02:21:07;3.10;;;2.80;;
29416;SDS011;28421;51.030;4.006;2024-01-30T02:23:32;3.28;;;2.63;;
29416;SDS011;28421;51.030;4.006;2024-01-30T02:25:59;2.97;;;2.38;;
29416;SDS011;28421;51.030;4.006;2024-01-30T02:28:25;6.32;;;2.90;;
29416;SDS011;28421;51.030;4.006;2024-01-30T02:30:51;6.53;;;3.13;;
29416;SDS011;28421;51.030;4.006;2024-01-30T02:33:17;2.83;;;2.63;;
29416;SDS011;28421;51.030;4.006;2024-01-30T02:35:42;3.35;;;3.05;;
29416;SDS011;28421;51.030;4.006;2024-01-30T02:38:08;4.18;;;2.63;;
29416;SDS011;28421;51.030;4.006;2024-01-30T02:40:33;4.75;;;3.03;;
29416;SDS011;28421;51.030;4.006;2024-01-30T02:42:59;5.22;;;3.35;;
29416;SDS011;28421;51.030;4.006;2024-01-30T02:45:25;2.63;;;2.40;;
29416;SDS011;28421;51.030;4.006;2024-01-30T02:47:50;2.33;;;2.05;;
29416;SDS011;28421;51.030;4.006;2024-01-30T02:50:16;4.30;;;3.13;;
29416;SDS011;28421;51.030;4.006;2024-01-30T02:52:42;11.32;;;3.17;;
29416;SDS011;28421;51.030;4.006;2024-01-30T02:55:10;6.72;;;3.20;;
29416;SDS011;28421;51.030;4.006;2024-01-30T02:57:37;2.85;;;2.25;;
29416;SDS011;28421;51.030;4.006;2024-01-30T03:00:03;4.75;;;2.50;;
29416;SDS011;28421;51.030;4.006;2024-01-30T03:02:30;4.35;;;2.50;;
29416;SDS011;28421;51.030;4.006;2024-01-30T03:04:56;4.55;;;3.28;;
29416;SDS011;28421;51.030;4.006;2024-01-30T03:07:21;4.32;;;3.47;;
29416;SDS011;28421;51.030;4.006;2024-01-30T03:09:47;3.50;;;2.40;;
29416;SDS011;28421;51.030;4.006;2024-01-30T03:12:13;3.47;;;2.97;;
29416;SDS011;28421;51.030;4.006;2024-01-30T03:14:39;2.97;;;2.45;;
29416;SDS011;28421;51.030;4.006;2024-01-30T03:17:04;7.28;;;3.28;;
29416;SDS011;28421;51.030;4.006;2024-01-30T03:19:30;2.42;;;2.22;;
29416;SDS011;28421;51.030;4.006;2024-01-30T03:21:55;2.20;;;2.00;;
29416;SDS011;28421;51.030;4.006;2024-01-30T03:24:21;2.85;;;2.55;;
29416;SDS011;28421;51.030;4.006;2024-01-30T03:26:46;3.80;;;2.45;;
29416;SDS011;28421;51.030;4.006;2024-01-30T03:29:12;4.15;;;2.05;;
29416;SDS011;28421;51.030;4.006;2024-01-30T03:31:38;4.80;;;3.53;;
29416;SDS011;28421;51.030;4.006;2024-01-30T03:34:04;3.95;;;3.38;;
29416;SDS011;28421;51.030;4.006;2024-01-30T03:36:30;7.22;;;2.80;;
29416;SDS011;28421;51.030;4.006;2024-01-30T03:38:58;3.17;;;2.88;;
29416;SDS011;28421;51.030;4.006;2024-01-30T03:41:23;3.15;;;1.85;;
29416;SDS011;28421;51.030;4.006;2024-01-30T03:43:49;4.85;;;2.83;;
29416;SDS011;28421;51.030;4.006;2024-01-30T03:46:15;3.45;;;2.92;;
29416;SDS011;28421;51.030;4.006;2024-01-30T03:48:41;3.03;;;2.38;;
29416;SDS011;28421;51.030;4.006;2024-01-30T03:51:06;3.22;;;2.63;;
29416;SDS011;28421;51.030;4.006;2024-01-30T03:53:31;2.95;;;2.47;;
29416;SDS011;28421;51.030;4.006;2024-01-30T03:55:57;3.72;;;2.75;;
29416;SDS011;28421;51.030;4.006;2024-01-30T03:58:22;4.30;;;3.60;;
29416;SDS011;28421;51.030;4.006;2024-01-30T04:00:48;7.28;;;3.60;;
29416;SDS011;28421;51.030;4.006;2024-01-30T04:03:16;6.95;;;2.97;;
29416;SDS011;28421;51.030;4.006;2024-01-30T04:05:42;4.13;;;2.75;;
29416;SDS011;28421;51.030;4.006;2024-01-30T04:08:08;2.65;;;2.45;;
29416;SDS011;28421;51.030;4.006;2024-01-30T04:10:34;3.53;;;2.72;;
29416;SDS011;28421;51.030;4.006;2024-01-30T04:12:59;4.05;;;3.28;;
29416;SDS011;28421;51.030;4.006;2024-01-30T04:15:25;4.57;;;3.33;;
29416;SDS011;28421;51.030;4.006;2024-01-30T04:17:51;3.83;;;3.08;;
29416;SDS011;28421;51.030;4.006;2024-01-30T04:20:17;4.18;;;2.42;;
29416;SDS011;28421;51.030;4.006;2024-01-30T04:22:45;4.20;;;3.45;;
29416;SDS011;28421;51.030;4.006;2024-01-30T04:25:12;5.78;;;2.83;;
29416;SDS011;28421;51.030;4.006;2024-01-30T04:27:38;3.95;;;2.70;;
29416;SDS011;28421;51.030;4.006;2024-01-30T04:30:04;2.45;;;2.28;;
29416;SDS011;28421;51.030;4.006;2024-01-30T04:32:30;3.85;;;2.85;;
29416;SDS011;28421;51.030;4.006;2024-01-30T04:34:55;3.10;;;2.42;;
29416;SDS011;28421;51.030;4.006;2024-01-30T04:37:21;4.15;;;2.67;;
29416;SDS011;28421;51.030;4.006;2024-01-30T04:39:46;2.67;;;2.33;;
29416;SDS011;28421;51.030;4.006;2024-01-30T04:42:12;2.05;;;1.88;;
29416;SDS011;28421;51.030;4.006;2024-01-30T04:44:37;3.35;;;2.35;;
29416;SDS011;28421;51.030;4.006;2024-01-30T04:47:03;2.92;;;2.33;;
29416;SDS011;28421;51.030;4.006;2024-01-30T04:49:30;3.50;;;2.40;;
29416;SDS011;28421;51.030;4.006;2024-01-30T04:51:55;5.53;;;3.25;;
29416;SDS011;28421;51.030;4.006;2024-01-30T04:54:21;2.90;;;2.33;;
29416;SDS011;28421;51.030;4.006;2024-01-30T04:56:47;2.95;;;2.30;;
29416;SDS011;28421;51.030;4.006;2024-01-30T04:59:12;4.53;;;3.30;;
29416;SDS011;28421;51.030;4.006;2024-01-30T05:01:38;3.50;;;2.33;;
29416;SDS011;28421;51.030;4.006;2024-01-30T05:04:03;4.60;;;2.55;;
29416;SDS011;28421;51.030;4.006;2024-01-30T05:06:29;3.72;;;2.53;;
29416;SDS011;28421;51.030;4.006;2024-01-30T05:08:55;2.80;;;2.55;;
29416;SDS011;28421;51.030;4.006;2024-01-30T05:11:20;4.10;;;1.98;;
29416;SDS011;28421;51.030;4.006;2024-01-30T05:13:46;2.53;;;2.33;;
29416;SDS011;28421;51.030;4.006;2024-01-30T05:16:12;3.20;;;2.80;;
29416;SDS011;28421;51.030;4.006;2024-01-30T05:18:38;2.28;;;1.90;;
29416;SDS011;28421;51.030;4.006;2024-01-30T05:21:03;5.43;;;2.88;;
29416;SDS011;28421;51.030;4.006;2024-01-30T05:23:30;4.53;;;3.03;;
29416;SDS011;28421;51.030;4.006;2024-01-30T05:25:55;4.38;;;3.78;;
29416;SDS011;28421;51.030;4.006;2024-01-30T05:28:20;2.20;;;2.10;;
29416;SDS011;28421;51.030;4.006;2024-01-30T05:30:46;3.55;;;3.10;;
29416;SDS011;28421;51.030;4.006;2024-01-30T05:33:11;8.68;;;3.08;;
29416;SDS011;28421;51.030;4.006;2024-01-30T05:35:38;3.95;;;2.60;;
29416;SDS011;28421;51.030;4.006;2024-01-30T05:38:04;4.20;;;2.55;;
29416;SDS011;28421;51.030;4.006;2024-01-30T05:40:30;2.25;;;2.03;;
29416;SDS011;28421;51.030;4.006;2024-01-30T05:42:56;3.55;;;2.63;;
29416;SDS011;28421;51.030;4.006;2024-01-30T05:45:23;6.40;;;3.10;;
29416;SDS011;28421;51.030;4.006;2024-01-30T05:47:49;3.92;;;3.03;;
29416;SDS011;28421;51.030;4.006;2024-01-30T05:50:14;3.10;;;2.45;;
29416;SDS011;28421;51.030;4.006;2024-01-30T05:52:40;2.25;;;2.13;;
29416;SDS011;28421;51.030;4.006;2024-01-30T05:55:06;4.35;;;2.70;;
29416;SDS011;28421;51.030;4.006;2024-01-30T05:57:31;4.18;;;2.83;;
29416;SDS011;28421;51.030;4.006;2024-01-30T05:59:57;3.58;;;2.85;;
29416;SDS011;28421;51.030;4.006;2024-01-30T06:02:23;2.58;;;2.25;;
29416;SDS011;28421;51.030;4.006;2024-01-30T06:04:48;3.72;;;2.15;;
29416;SDS011;28421;51.030;4.006;2024-01-30T06:07:14;6.90;;;3.33;;
29416;SDS011;28421;51.030;4.006;2024-01-30T06:09:39;2.90;;;2.33;;
29416;SDS011;28421;51.030;4.006;2024-01-30T06:12:06;3.88;;;3.30;;
29416;SDS011;28421;51.030;4.006;2024-01-30T06:14:31;4.03;;;2.33;;
29416;SDS011;28421;51.030;4.006;2024-01-30T06:16:58;9.18;;;5.32;;
29416;SDS011;28421;51.030;4.006;2024-01-30T06:19:25;3.13;;;2.67;;
29416;SDS011;28421;51.030;4.006;2024-01-30T06:21:50;3.80;;;2.65;;
29416;SDS011;28421;51.030;4.006;2024-01-30T06:24:16;3.95;;;2.50;;
29416;SDS011;28421;51.030;4.006;2024-01-30T06:26:42;3.47;;;3.17;;
29416;SDS011;28421;51.030;4.006;2024-01-30T06:29:08;2.63;;;2.03;;
29416;SDS011;28421;51.030;4.006;2024-01-30T06:31:36;6.43;;;3.10;;
29416;SDS011;28421;51.030;4.006;2024-01-30T06:34:05;3.50;;;3.08;;
29416;SDS011;28421;51.030;4.006;2024-01-30T06:36:30;3.95;;;2.47;;
29416;SDS011;28421;51.030;4.006;2024-01-30T06:38:56;3.67;;;2.53;;
29416;SDS011;28421;51.030;4.006;2024-01-30T06:41:21;2.88;;;2.38;;
29416;SDS011;28421;51.030;4.006;2024-01-30T06:43:47;6.13;;;3.05;;
29416;SDS011;28421;51.030;4.006;2024-01-30T06:46:12;3.00;;;2.53;;
29416;SDS011;28421;51.030;4.006;2024-01-30T06:48:38;5.25;;;3.38;;
29416;SDS011;28421;51.030;4.006;2024-01-30T06:51:05;3.22;;;2.80;;
29416;SDS011;28421;51.030;4.006;2024-01-30T06:53:31;2.92;;;2.42;;
29416;SDS011;28421;51.030;4.006;2024-01-30T06:55:57;2.13;;;1.92;;
29416;SDS011;28421;51.030;4.006;2024-01-30T06:58:22;3.28;;;2.72;;
29416;SDS011;28421;51.030;4.006;2024-01-30T07:00:48;3.05;;;2.40;;
29416;SDS011;28421;51.030;4.006;2024-01-30T07:03:13;2.70;;;2.47;;
29416;SDS011;28421;51.030;4.006;2024-01-30T07:05:39;3.83;;;2.65;;
29416;SDS011;28421;51.030;4.006;2024-01-30T07:08:04;3.78;;;2.88;;
29416;SDS011;28421;51.030;4.006;2024-01-30T07:10:30;3.13;;;2.85;;
29416;SDS011;28421;51.030;4.006;2024-01-30T07:12:56;4.32;;;2.63;;
29416;SDS011;28421;51.030;4.006;2024-01-30T07:15:22;4.20;;;2.97;;
29416;SDS011;28421;51.030;4.006;2024-01-30T07:17:47;9.40;;;3.22;;
29416;SDS011;28421;51.030;4.006;2024-01-30T07:20:13;3.03;;;2.60;;
29416;SDS011;28421;51.030;4.006;2024-01-30T07:22:39;5.82;;;3.03;;
29416;SDS011;28421;51.030;4.006;2024-01-30T07:25:05;3.67;;;2.50;;
29416;SDS011;28421;51.030;4.006;2024-01-30T07:27:31;4.03;;;2.60;;
29416;SDS011;28421;51.030;4.006;2024-01-30T07:29:57;3.22;;;2.67;;
29416;SDS011;28421;51.030;4.006;2024-01-30T07:32:22;3.15;;;2.63;;
29416;SDS011;28421;51.030;4.006;2024-01-30T07:34:48;3.38;;;2.40;;
29416;SDS011;28421;51.030;4.006;2024-01-30T07:37:14;3.70;;;3.38;;
29416;SDS011;28421;51.030;4.006;2024-01-30T07:39:41;4.57;;;3.30;;
29416;SDS011;28421;51.030;4.006;2024-01-30T07:42:07;5.68;;;3.92;;
29416;SDS011;28421;51.030;4.006;2024-01-30T07:44:33;5.20;;;3.15;;
29416;SDS011;28421;51.030;4.006;2024-01-30T07:46:59;3.30;;;2.65;;
29416;SDS011;28421;51.030;4.006;2024-01-30T07:49:25;3.70;;;2.97;;
29416;SDS011;28421;51.030;4.006;2024-01-30T07:51:50;5.20;;;2.63;;
29416;SDS011;28421;51.030;4.006;2024-01-30T07:54:16;3.13;;;2.83;;
29416;SDS011;28421;51.030;4.006;2024-01-30T07:56:41;5.30;;;2.97;;
29416;SDS011;28421;51.030;4.006;2024-01-30T07:59:10;4.75;;;3.40;;
29416;SDS011;28421;51.030;4.006;2024-01-30T08:01:36;7.22;;;3.03;;
29416;SDS011;28421;51.030;4.006;2024-01-30T08:04:04;5.45;;;3.58;;
29416;SDS011;28421;51.030;4.006;2024-01-30T08:06:29;3.33;;;2.60;;
29416;SDS011;28421;51.030;4.006;2024-01-30T08:08:55;6.03;;;3.40;;
29416;SDS011;28421;51.030;4.006;2024-01-30T08:11:22;5.47;;;3.08;;
29416;SDS011;28421;51.030;4.006;2024-01-30T08:13:51;3.05;;;2.80;;
29416;SDS011;28421;51.030;4.006;2024-01-30T08:16:18;5.82;;;3.17;;
29416;SDS011;28421;51.030;4.006;2024-01-30T08:18:43;3.65;;;2.65;;
29416;SDS011;28421;51.030;4.006;2024-01-30T08:21:09;2.80;;;2.60;;
29416;SDS011;28421;51.030;4.006;2024-01-30T08:23:35;3.97;;;2.83;;
29416;SDS011;28421;51.030;4.006;2024-01-30T08:26:00;5.38;;;3.80;;
29416;SDS011;28421;51.030;4.006;2024-01-30T08:28:26;4.40;;;3.50;;
29416;SDS011;28421;51.030;4.006;2024-01-30T08:30:52;5.07;;;4.07;;
29416;SDS011;28421;51.030;4.006;2024-01-30T08:33:17;5.18;;;3.05;;
29416;SDS011;28421;51.030;4.006;2024-01-30T08:35:43;3.67;;;3.08;;
29416;SDS011;28421;51.030;4.006;2024-01-30T08:38:09;2.58;;;2.38;;
29416;SDS011;28421;51.030;4.006;2024-01-30T08:40:34;7.05;;;3.75;;
29416;SDS011;28421;51.030;4.006;2024-01-30T08:43:00;5.57;;;2.78;;
29416;SDS011;28421;51.030;4.006;2024-01-30T08:45:25;2.92;;;2.65;;
29416;SDS011;28421;51.030;4.006;2024-01-30T08:47:51;5.10;;;3.80;;
29416;SDS011;28421;51.030;4.006;2024-01-30T08:50:17;4.25;;;3.13;;
29416;SDS011;28421;51.030;4.006;2024-01-30T08:52:42;5.07;;;3.22;;
29416;SDS011;28421;51.030;4.006;2024-01-30T08:55:08;3.70;;;3.03;;
29416;SDS011;28421;51.030;4.006;2024-01-30T08:57:34;7.15;;;4.15;;
29416;SDS011;28421;51.030;4.006;2024-01-30T09:00:00;4.57;;;3.42;;
29416;SDS011;28421;51.030;4.006;2024-01-30T09:02:27;2.75;;;2.33;;
29416;SDS011;28421;51.030;4.006;2024-01-30T09:04:52;3.38;;;2.85;;
29416;SDS011;28421;51.030;4.006;2024-01-30T09:07:18;4.95;;;3.55;;
29416;SDS011;28421;51.030;4.006;2024-01-30T09:09:44;4.43;;;3.47;;
29416;SDS011;28421;51.030;4.006;2024-01-30T09:12:10;5.35;;;3.00;;
29416;SDS011;28421;51.030;4.006;2024-01-30T09:14:37;6.15;;;3.47;;
29416;SDS011;28421;51.030;4.006;2024-01-30T09:17:03;3.75;;;3.33;;
29416;SDS011;28421;51.030;4.006;2024-01-30T09:19:29;14.85;;;4.20;;
29416;SDS011;28421;51.030;4.006;2024-01-30T09:21:55;6.25;;;3.80;;
29416;SDS011;28421;51.030;4.006;2024-01-30T09:24:21;4.53;;;3.17;;
29416;SDS011;28421;51.030;4.006;2024-01-30T09:26:46;4.45;;;3.95;;
29416;SDS011;28421;51.030;4.006;2024-01-30T09:29:12;4.88;;;3.88;;
29416;SDS011;28421;51.030;4.006;2024-01-30T09:31:37;6.38;;;3.58;;
29416;SDS011;28421;51.030;4.006;2024-01-30T09:34:03;9.90;;;4.82;;
29416;SDS011;28421;51.030;4.006;2024-01-30T09:36:28;6.72;;;3.58;;
29416;SDS011;28421;51.030;4.006;2024-01-30T09:38:54;4.82;;;3.90;;
29416;SDS011;28421;51.030;4.006;2024-01-30T09:41:22;5.13;;;4.05;;
29416;SDS011;28421;51.030;4.006;2024-01-30T09:43:50;7.68;;;4.70;;
29416;SDS011;28421;51.030;4.006;2024-01-30T09:46:17;5.57;;;3.55;;
29416;SDS011;28421;51.030;4.006;2024-01-30T09:48:46;4.60;;;3.60;;
29416;SDS011;28421;51.030;4.006;2024-01-30T09:51:14;4.82;;;2.90;;
29416;SDS011;28421;51.030;4.006;2024-01-30T09:53:41;3.63;;;2.72;;
29416;SDS011;28421;51.030;4.006;2024-01-30T09:56:08;5.65;;;3.08;;
29416;SDS011;28421;51.030;4.006;2024-01-30T09:58:33;6.85;;;3.75;;
29416;SDS011;28421;51.030;4.006;2024-01-30T10:00:59;3.63;;;2.80;;
29416;SDS011;28421;51.030;4.006;2024-01-30T10:03:25;3.58;;;3.05;;
29416;SDS011;28421;51.030;4.006;2024-01-30T10:05:51;2.38;;;1.75;;
29416;SDS011;28421;51.030;4.006;2024-01-30T10:08:20;3.03;;;2.35;;
29416;SDS011;28421;51.030;4.006;2024-01-30T10:10:49;1.10;;;1.00;;
29416;SDS011;28421;51.030;4.006;2024-01-30T10:13:15;1.27;;;1.20;;
29416;SDS011;28421;51.030;4.006;2024-01-30T10:15:41;8.02;;;1.25;;
29416;SDS011;28421;51.030;4.006;2024-01-30T10:18:08;0.60;;;0.60;;
29416;SDS011;28421;51.030;4.006;2024-01-30T10:20:35;1.45;;;0.93;;
29416;SDS011;28421;51.030;4.006;2024-01-30T10:23:01;1.55;;;1.45;;
29416;SDS011;28421;51.030;4.006;2024-01-30T10:25:26;1.40;;;0.68;;
29416;SDS011;28421;51.030;4.006;2024-01-30T10:27:53;1.00;;;0.85;;
29416;SDS011;28421;51.030;4.006;2024-01-30T10:30:22;1.20;;;0.60;;
29416;SDS011;28421;51.030;4.006;2024-01-30T10:32:48;0.60;;;0.60;;
29416;SDS011;28421;51.030;4.006;2024-01-30T10:35:14;0.50;;;0.50;;
29416;SDS011;28421;51.030;4.006;2024-01-30T10:37:41;0.30;;;0.30;;
29416;SDS011;28421;51.030;4.006;2024-01-30T10:40:08;0.40;;;0.40;;
29416;SDS011;28421;51.030;4.006;2024-01-30T10:42:37;1.63;;;0.60;;
29416;SDS011;28421;51.030;4.006;2024-01-30T10:45:08;3.33;;;1.10;;
29416;SDS011;28421;51.030;4.006;2024-01-30T10:47:36;0.60;;;0.60;;
29416;SDS011;28421;51.030;4.006;2024-01-30T10:50:02;0.30;;;0.30;;
29416;SDS011;28421;51.030;4.006;2024-01-30T10:52:31;0.90;;;0.88;;
29416;SDS011;28421;51.030;4.006;2024-01-30T10:54:58;0.40;;;0.40;;
29416;SDS011;28421;51.030;4.006;2024-01-30T10:57:25;0.40;;;0.40;;
29416;SDS011;28421;51.030;4.006;2024-01-30T10:59:58;0.50;;;0.50;;
29416;SDS011;28421;51.030;4.006;2024-01-30T11:02:25;1.30;;;0.47;;
29416;SDS011;28421;51.030;4.006;2024-01-30T11:04:56;0.60;;;0.60;;
29416;SDS011;28421;51.030;4.006;2024-01-30T11:07:26;0.50;;;0.50;;
29416;SDS011;28421;51.030;4.006;2024-01-30T11:09:59;0.55;;;0.55;;
29416;SDS011;28421;51.030;4.006;2024-01-30T11:12:28;2.75;;;0.60;;
29416;SDS011;28421;51.030;4.006;2024-01-30T11:15:28;0.30;;;0.30;;
29416;SDS011;28421;51.030;4.006;2024-01-30T11:20:27;0.47;;;0.47;;
29416;SDS011;28421;51.030;4.006;2024-01-30T11:22:56;1.30;;;0.60;;
29416;SDS011;28421;51.030;4.006;2024-01-30T11:25:23;0.30;;;0.30;;
29416;SDS011;28421;51.030;4.006;2024-01-30T11:27:49;0.60;;;0.60;;
29416;SDS011;28421;51.030;4.006;2024-01-30T11:30:29;0.45;;;0.45;;
29416;SDS011;28421;51.030;4.006;2024-01-30T11:35:34;5.70;;;0.65;;
29416;SDS011;28421;51.030;4.006;2024-01-30T11:38:01;0.30;;;0.30;;
29416;SDS011;28421;51.030;4.006;2024-01-30T11:40:28;1.15;;;0.88;;
29416;SDS011;28421;51.030;4.006;2024-01-30T11:42:58;0.90;;;0.90;;
29416;SDS011;28421;51.030;4.006;2024-01-30T11:45:28;0.50;;;0.50;;
29416;SDS011;28421;51.030;4.006;2024-01-30T11:47:54;1.95;;;0.80;;
29416;SDS011;28421;51.030;4.006;2024-01-30T11:50:20;0.60;;;0.50;;
29416;SDS011;28421;51.030;4.006;2024-01-30T11:52:47;3.75;;;0.60;;
29416;SDS011;28421;51.030;4.006;2024-01-30T11:55:14;0.55;;;0.55;;
29416;SDS011;28421;51.030;4.006;2024-01-30T11:57:40;0.75;;;0.52;;
29416;SDS011;28421;51.030;4.006;2024-01-30T12:00:06;0.30;;;0.30;;
29416;SDS011;28421;51.030;4.006;2024-01-30T12:02:40;1.05;;;0.95;;
29416;SDS011;28421;51.030;4.006;2024-01-30T12:05:06;0.52;;;0.30;;
29416;SDS011;28421;51.030;4.006;2024-01-30T12:07:32;0.38;;;0.38;;
29416;SDS011;28421;51.030;4.006;2024-01-30T12:09:58;0.40;;;0.40;;
29416;SDS011;28421;51.030;4.006;2024-01-30T12:12:25;0.95;;;0.95;;
29416;SDS011;28421;51.030;4.006;2024-01-30T12:14:51;0.75;;;0.75;;
29416;SDS011;28421;51.030;4.006;2024-01-30T12:22:35;1.25;;;1.02;;
29416;SDS011;28421;51.030;4.006;2024-01-30T12:25:08;0.50;;;0.50;;
29416;SDS011;28421;51.030;4.006;2024-01-30T12:27:35;0.82;;;0.82;;
29416;SDS011;28421;51.030;4.006;2024-01-30T12:30:02;0.60;;;0.60;;
29416;SDS011;28421;51.030;4.006;2024-01-30T12:32:30;1.45;;;1.35;;
29416;SDS011;28421;51.030;4.006;2024-01-30T12:34:56;0.80;;;0.80;;
29416;SDS011;28421;51.030;4.006;2024-01-30T12:37:24;1.05;;;0.90;;
29416;SDS011;28421;51.030;4.006;2024-01-30T12:39:51;0.50;;;0.50;;
29416;SDS011;28421;51.030;4.006;2024-01-30T12:42:19;3.63;;;0.88;;
29416;SDS011;28421;51.030;4.006;2024-01-30T12:44:46;0.85;;;0.55;;
29416;SDS011;28421;51.030;4.006;2024-01-30T12:47:11;0.50;;;0.50;;
29416;SDS011;28421;51.030;4.006;2024-01-30T12:49:37;0.65;;;0.65;;
29416;SDS011;28421;51.030;4.006;2024-01-30T12:52:02;1.00;;;0.70;;
29416;SDS011;28421;51.030;4.006;2024-01-30T12:54:28;0.50;;;0.50;;
29416;SDS011;28421;51.030;4.006;2024-01-30T12:56:54;0.73;;;0.73;;
29416;SDS011;28421;51.030;4.006;2024-01-30T12:59:19;7.43;;;0.88;;
29416;SDS011;28421;51.030;4.006;2024-01-30T13:01:45;0.38;;;0.38;;
29416;SDS011;28421;51.030;4.006;2024-01-30T13:04:10;0.93;;;0.65;;
29416;SDS011;28421;51.030;4.006;2024-01-30T13:06:36;0.60;;;0.60;;
29416;SDS011;28421;51.030;4.006;2024-01-30T13:09:02;0.70;;;0.70;;
29416;SDS011;28421;51.030;4.006;2024-01-30T13:11:28;1.70;;;0.90;;
29416;SDS011;28421;51.030;4.006;2024-01-30T13:13:53;0.85;;;0.85;;
29416;SDS011;28421;51.030;4.006;2024-01-30T13:16:19;1.08;;;0.88;;
29416;SDS011;28421;51.030;4.006;2024-01-30T13:18:44;1.73;;;0.98;;
29416;SDS011;28421;51.030;4.006;2024-01-30T13:21:10;0.40;;;0.40;;
29416;SDS011;28421;51.030;4.006;2024-01-30T13:23:35;0.52;;;0.52;;
29416;SDS011;28421;51.030;4.006;2024-01-30T13:26:01;0.70;;;0.70;;
29416;SDS011;28421;51.030;4.006;2024-01-30T13:28:27;5.32;;;0.65;;
29416;SDS011;28421;51.030;4.006;2024-01-30T13:30:53;1.95;;;0.60;;
29416;SDS011;28421;51.030;4.006;2024-01-30T13:33:18;0.88;;;0.68;;
29416;SDS011;28421;51.030;4.006;2024-01-30T13:35:44;0.77;;;0.77;;
29416;SDS011;28421;51.030;4.006;2024-01-30T13:38:09;8.88;;;0.70;;
29416;SDS011;28421;51.030;4.006;2024-01-30T13:40:35;0.98;;;0.73;;
29416;SDS011;28421;51.030;4.006;2024-01-30T13:43:01;1.60;;;1.17;;
29416;SDS011;28421;51.030;4.006;2024-01-30T13:45:26;0.85;;;0.45;;
29416;SDS011;28421;51.030;4.006;2024-01-30T13:47:52;0.70;;;0.50;;
29416;SDS011;28421;51.030;4.006;2024-01-30T13:50:18;1.65;;;1.02;;
29416;SDS011;28421;51.030;4.006;2024-01-30T13:52:43;3.22;;;1.40;;
29416;SDS011;28421;51.030;4.006;2024-01-30T13:55:09;1.20;;;0.65;;
29416;SDS011;28421;51.030;4.006;2024-01-30T13:57:35;2.85;;;1.20;;
29416;SDS011;28421;51.030;4.006;2024-01-30T14:00:05;0.47;;;0.47;;
29416;SDS011;28421;51.030;4.006;2024-01-30T14:02:40;1.52;;;0.80;;
29416;SDS011;28421;51.030;4.006;2024-01-30T14:05:05;0.43;;;0.43;;
29416;SDS011;28421;51.030;4.006;2024-01-30T14:07:31;0.43;;;0.43;;
29416;SDS011;28421;51.030;4.006;2024-01-30T14:09:56;0.40;;;0.40;;
29416;SDS011;28421;51.030;4.006;2024-01-30T14:12:22;0.65;;;0.63;;
29416;SDS011;28421;51.030;4.006;2024-01-30T14:14:48;3.60;;;1.02;;
29416;SDS011;28421;51.030;4.006;2024-01-30T14:17:14;1.38;;;0.73;;
29416;SDS011;28421;51.030;4.006;2024-01-30T14:19:39;1.05;;;1.05;;
29416;SDS011;28421;51.030;4.006;2024-01-30T14:22:05;6.28;;;1.17;;
29416;SDS011;28421;51.030;4.006;2024-01-30T14:24:31;1.50;;;0.77;;
29416;SDS011;28421;51.030;4.006;2024-01-30T14:26:56;2.55;;;1.90;;
29416;SDS011;28421;51.030;4.006;2024-01-30T14:29:22;1.95;;;0.65;;
29416;SDS011;28421;51.030;4.006;2024-01-30T14:31:47;0.75;;;0.75;;
29416;SDS011;28421;51.030;4.006;2024-01-30T14:34:13;1.10;;;0.60;;
29416;SDS011;28421;51.030;4.006;2024-01-30T14:36:38;1.40;;;0.63;;
29416;SDS011;28421;51.030;4.006;2024-01-30T14:39:04;0.85;;;0.82;;
29416;SDS011;28421;51.030;4.006;2024-01-30T14:41:32;0.65;;;0.60;;
29416;SDS011;28421;51.030;4.006;2024-01-30T14:43:57;0.38;;;0.38;;
29416;SDS011;28421;51.030;4.006;2024-01-30T14:46:23;0.63;;;0.63;;
29416;SDS011;28421;51.030;4.006;2024-01-30T14:48:49;0.88;;;0.88;;
29416;SDS011;28421;51.030;4.006;2024-01-30T14:51:16;1.08;;;0.50;;
29416;SDS011;28421;51.030;4.006;2024-01-30T14:53:42;0.60;;;0.60;;